createdAt,value
2018-07-04T00:00:25.605Z,890.62
2018-07-04T00:01:25.597Z,890.65
2018-07-04T00:02:25.585Z,890.63
2018-07-04T00:03:25.579Z,890.62
2018-07-04T00:04:25.570Z,890.64
2018-07-04T00:05:46.563Z,890.63
2018-07-04T00:06:25.545Z,890.62
2018-07-04T00:07:25.543Z,890.61
2018-07-04T00:08:25.530Z,890.58
2018-07-04T00:09:25.524Z,890.59
2018-07-04T00:10:25.520Z,890.53
2018-07-04T00:11:46.516Z,890.53
2018-07-04T00:12:25.498Z,890.53
2018-07-04T00:13:25.488Z,890.53
2018-07-04T00:14:25.476Z,890.49
2018-07-04T00:15:25.469Z,890.49
2018-07-04T00:16:25.457Z,890.47
2018-07-04T00:17:46.456Z,890.47
2018-07-04T00:18:25.439Z,890.46
2018-07-04T00:19:25.431Z,890.45
2018-07-04T00:20:25.425Z,890.44
2018-07-04T00:21:25.415Z,890.44
2018-07-04T00:22:25.403Z,890.44
2018-07-04T00:23:46.403Z,890.48
2018-07-04T00:24:25.401Z,890.47
2018-07-04T00:25:25.380Z,890.49
2018-07-04T00:26:25.371Z,890.50
2018-07-04T00:27:25.360Z,890.49
2018-07-04T00:28:25.352Z,890.53
2018-07-04T00:29:46.344Z,890.55
2018-07-04T00:30:25.334Z,890.56
2018-07-04T00:31:25.323Z,890.55
2018-07-04T00:32:25.317Z,890.53
2018-07-04T00:33:25.315Z,890.53
2018-07-04T00:34:25.308Z,890.48
2018-07-04T00:35:46.291Z,890.47
2018-07-04T00:36:25.277Z,890.44
2018-07-04T00:37:25.265Z,890.45
2018-07-04T00:38:25.258Z,890.43
2018-07-04T00:39:25.252Z,890.43
2018-07-04T00:40:25.246Z,890.43
2018-07-04T00:41:46.239Z,890.43
2018-07-04T00:42:25.222Z,890.45
2018-07-04T00:43:25.212Z,890.40
2018-07-04T00:44:25.222Z,890.40
2018-07-04T00:45:25.200Z,890.39
2018-07-04T00:46:25.186Z,890.37
2018-07-04T00:47:46.185Z,890.36
2018-07-04T00:48:25.165Z,890.35
2018-07-04T00:49:25.159Z,890.35
2018-07-04T00:50:25.147Z,890.37
2018-07-04T00:51:25.141Z,890.35
2018-07-04T00:52:25.134Z,890.35
2018-07-04T00:53:46.132Z,890.32
2018-07-04T00:54:25.115Z,890.29
2018-07-04T00:55:25.106Z,890.29
2018-07-04T00:56:25.094Z,890.27
2018-07-04T00:57:25.089Z,890.25
2018-07-04T00:58:25.080Z,890.22
2018-07-04T00:59:46.079Z,890.20
2018-07-04T01:00:25.057Z,890.22
2018-07-04T01:01:25.045Z,890.16
2018-07-04T01:02:25.043Z,890.13
2018-07-04T01:03:25.028Z,890.12
2018-07-04T01:04:25.028Z,890.16
2018-07-04T01:05:46.018Z,890.16
2018-07-04T01:06:25.010Z,890.16
2018-07-04T01:07:24.995Z,890.16
2018-07-04T01:08:24.985Z,890.16
2018-07-04T01:09:24.977Z,890.13
2018-07-04T01:10:24.970Z,890.13
2018-07-04T01:11:45.970Z,890.16
2018-07-04T01:12:24.955Z,890.11
2018-07-04T01:13:24.940Z,890.08
2018-07-04T01:14:24.938Z,890.04
2018-07-04T01:15:24.921Z,890.06
2018-07-04T01:16:24.915Z,890.03
2018-07-04T01:17:45.905Z,890.04
2018-07-04T01:18:24.901Z,890.03
2018-07-04T01:19:24.886Z,889.99
2018-07-04T01:20:24.878Z,890.02
2018-07-04T01:21:24.900Z,890.01
2018-07-04T01:22:24.858Z,890.03
2018-07-04T01:23:45.858Z,889.99
2018-07-04T01:24:24.839Z,889.96
2018-07-04T01:25:24.833Z,889.94
2018-07-04T01:26:24.821Z,889.94
2018-07-04T01:27:24.814Z,889.96
2018-07-04T01:28:24.808Z,890.00
2018-07-04T01:29:45.802Z,889.99
2018-07-04T01:30:24.781Z,890.05
2018-07-04T01:31:24.777Z,890.07
2018-07-04T01:32:24.766Z,890.07
2018-07-04T01:33:24.755Z,890.11
2018-07-04T01:34:24.750Z,890.11
2018-07-04T01:35:45.750Z,890.13
2018-07-04T01:36:24.733Z,890.15
2018-07-04T01:37:24.725Z,890.16
2018-07-04T01:38:24.713Z,890.18
2018-07-04T01:39:24.703Z,890.17
2018-07-04T01:40:24.694Z,890.15
2018-07-04T01:41:45.689Z,890.13
2018-07-04T01:42:24.677Z,890.06
2018-07-04T01:43:24.664Z,890.07
2018-07-04T01:44:24.662Z,890.06
2018-07-04T01:45:24.652Z,890.04
2018-07-04T01:46:24.634Z,890.07
2018-07-04T01:47:45.637Z,890.10
2018-07-04T01:48:24.628Z,890.11
2018-07-04T01:49:24.609Z,890.11
2018-07-04T01:50:24.601Z,890.10
2018-07-04T01:51:24.595Z,890.08
2018-07-04T01:52:24.584Z,890.10
2018-07-04T01:53:45.576Z,890.10
2018-07-04T01:54:24.567Z,890.10
2018-07-04T01:55:24.556Z,890.10
2018-07-04T01:56:24.543Z,890.15
2018-07-04T01:57:24.537Z,890.15
2018-07-04T01:58:24.527Z,890.15
2018-07-04T01:59:45.525Z,890.10
2018-07-04T02:00:24.508Z,890.14
2018-07-04T02:01:24.510Z,890.12
2018-07-04T02:02:24.490Z,890.13
2018-07-04T02:03:24.481Z,890.16
2018-07-04T02:04:24.467Z,890.16
2018-07-04T02:05:45.468Z,890.17
2018-07-04T02:06:24.454Z,890.10
2018-07-04T02:07:24.447Z,890.08
2018-07-04T02:08:24.438Z,890.08
2018-07-04T02:09:24.430Z,890.10
2018-07-04T02:10:24.415Z,890.07
2018-07-04T02:11:45.410Z,890.06
2018-07-04T02:12:24.401Z,890.09
2018-07-04T02:13:24.390Z,890.06
2018-07-04T02:14:24.379Z,890.10
2018-07-04T02:15:24.370Z,890.09
2018-07-04T02:16:24.364Z,890.08
2018-07-04T02:17:45.355Z,890.09
2018-07-04T02:18:24.343Z,890.07
2018-07-04T02:19:24.338Z,890.09
2018-07-04T02:20:24.326Z,890.09
2018-07-04T02:21:24.314Z,890.09
2018-07-04T02:22:24.304Z,890.09
2018-07-04T02:23:45.303Z,890.10
2018-07-04T02:24:24.288Z,890.07
2018-07-04T02:25:24.281Z,890.05
2018-07-04T02:26:24.271Z,890.03
2018-07-04T02:27:24.262Z,889.95
2018-07-04T02:28:24.251Z,889.97
2018-07-04T02:29:45.246Z,889.94
2018-07-04T02:30:24.237Z,889.98
2018-07-04T02:31:24.221Z,889.95
2018-07-04T02:32:24.216Z,889.96
2018-07-04T02:33:24.208Z,889.94
2018-07-04T02:34:24.195Z,889.98
2018-07-04T02:35:45.198Z,889.94
2018-07-04T02:36:24.175Z,889.94
2018-07-04T02:37:24.169Z,889.92
2018-07-04T02:38:24.158Z,889.87
2018-07-04T02:39:24.152Z,889.89
2018-07-04T02:40:24.136Z,889.85
2018-07-04T02:41:45.133Z,889.85
2018-07-04T02:42:24.127Z,889.84
2018-07-04T02:43:24.112Z,889.89
2018-07-04T02:44:24.103Z,889.89
2018-07-04T02:45:24.094Z,889.94
2018-07-04T02:46:24.084Z,889.94
2018-07-04T02:47:45.081Z,889.97
2018-07-04T02:48:24.065Z,890.04
2018-07-04T02:49:24.057Z,890.02
2018-07-04T02:50:24.044Z,890.06
2018-07-04T02:51:24.039Z,890.04
2018-07-04T02:52:24.031Z,890.04
2018-07-04T02:53:45.024Z,890.07
2018-07-04T02:54:24.007Z,890.06
2018-07-04T02:55:24.004Z,890.05
2018-07-04T02:56:23.991Z,890.01
2018-07-04T02:57:23.985Z,890.05
2018-07-04T02:58:23.978Z,890.04
2018-07-04T02:59:44.974Z,890.00
2018-07-04T03:00:23.954Z,889.98
2018-07-04T03:01:23.947Z,890.01
2018-07-04T03:02:23.938Z,889.98
2018-07-04T03:03:23.931Z,889.97
2018-07-04T03:04:23.922Z,889.97
2018-07-04T03:05:44.919Z,889.95
2018-07-04T03:06:23.899Z,889.98
2018-07-04T03:07:23.886Z,889.91
2018-07-04T03:08:23.881Z,889.94
2018-07-04T03:09:23.868Z,889.93
2018-07-04T03:10:23.860Z,889.96
2018-07-04T03:11:44.857Z,889.92
2018-07-04T03:12:23.844Z,889.90
2018-07-04T03:13:23.829Z,889.96
2018-07-04T03:14:23.823Z,889.98
2018-07-04T03:15:23.816Z,889.96
2018-07-04T03:16:23.804Z,889.96
2018-07-04T03:17:44.803Z,889.96
2018-07-04T03:18:23.791Z,889.95
2018-07-04T03:19:23.780Z,889.98
2018-07-04T03:20:23.769Z,889.96
2018-07-04T03:21:23.761Z,889.97
2018-07-04T03:22:23.752Z,889.96
2018-07-04T03:23:44.743Z,889.96
2018-07-04T03:24:23.729Z,889.96
2018-07-04T03:25:23.727Z,889.95
2018-07-04T03:26:23.716Z,889.94
2018-07-04T03:27:23.704Z,889.95
2018-07-04T03:28:23.697Z,889.95
2018-07-04T03:29:44.689Z,889.93
2018-07-04T03:30:23.675Z,889.97
2018-07-04T03:31:23.667Z,889.93
2018-07-04T03:32:23.658Z,889.95
2018-07-04T03:33:23.650Z,890.00
2018-07-04T03:34:23.635Z,889.99
2018-07-04T03:35:44.635Z,890.03
2018-07-04T03:36:23.618Z,890.05
2018-07-04T03:37:23.613Z,890.06
2018-07-04T03:38:23.607Z,890.08
2018-07-04T03:39:23.590Z,890.09
2018-07-04T03:40:23.584Z,890.10
2018-07-04T03:41:44.580Z,890.10
2018-07-04T03:42:23.560Z,890.14
2018-07-04T03:43:23.557Z,890.15
2018-07-04T03:44:23.543Z,890.16
2018-07-04T03:45:23.537Z,890.18
2018-07-04T03:46:23.529Z,890.16
2018-07-04T03:47:44.529Z,890.18
2018-07-04T03:48:23.507Z,890.17
2018-07-04T03:49:23.505Z,890.18
2018-07-04T03:50:23.489Z,890.18
2018-07-04T03:51:23.482Z,890.19
2018-07-04T03:52:23.470Z,890.20
2018-07-04T03:53:44.462Z,890.21
2018-07-04T03:54:23.450Z,890.25
2018-07-04T03:55:23.441Z,890.27
2018-07-04T03:56:23.438Z,890.28
2018-07-04T03:57:23.420Z,890.30
2018-07-04T03:58:23.414Z,890.30
2018-07-04T03:59:44.413Z,890.30
2018-07-04T04:00:23.393Z,890.36
2018-07-04T04:01:23.384Z,890.34
2018-07-04T04:02:23.375Z,890.34
2018-07-04T04:03:23.366Z,890.34
2018-07-04T04:04:23.353Z,890.36
2018-07-04T04:05:44.356Z,890.35
2018-07-04T04:06:23.341Z,890.35
2018-07-04T04:07:23.372Z,890.34
2018-07-04T04:08:23.322Z,890.34
2018-07-04T04:09:23.310Z,890.35
2018-07-04T04:10:23.298Z,890.30
2018-07-04T04:11:44.297Z,890.31
2018-07-04T04:12:23.288Z,890.28
2018-07-04T04:13:23.276Z,890.27
2018-07-04T04:14:23.260Z,890.31
2018-07-04T04:15:23.249Z,890.33
2018-07-04T04:16:23.245Z,890.33
2018-07-04T04:17:44.240Z,890.36
2018-07-04T04:18:23.223Z,890.37
2018-07-04T04:19:23.213Z,890.33
2018-07-04T04:20:23.205Z,890.34
2018-07-04T04:21:23.195Z,890.34
2018-07-04T04:22:23.187Z,890.37
2018-07-04T04:23:44.184Z,890.34
2018-07-04T04:24:23.171Z,890.32
2018-07-04T04:25:23.166Z,890.36
2018-07-04T04:26:23.156Z,890.32
2018-07-04T04:27:23.140Z,890.34
2018-07-04T04:28:23.133Z,890.33
2018-07-04T04:29:44.126Z,890.32
2018-07-04T04:30:23.115Z,890.31
2018-07-04T04:31:23.107Z,890.35
2018-07-04T04:32:23.093Z,890.31
2018-07-04T04:33:23.086Z,890.31
2018-07-04T04:34:23.075Z,890.30
2018-07-04T04:35:44.071Z,890.31
2018-07-04T04:36:23.097Z,890.31
2018-07-04T04:37:23.050Z,890.27
2018-07-04T04:38:23.033Z,890.26
2018-07-04T04:39:23.026Z,890.27
2018-07-04T04:40:23.018Z,890.25
2018-07-04T04:41:44.016Z,890.28
2018-07-04T04:42:23.055Z,890.27
2018-07-04T04:43:22.988Z,890.27
2018-07-04T04:44:22.980Z,890.30
2018-07-04T04:45:22.972Z,890.27
2018-07-04T04:46:22.964Z,890.30
2018-07-04T04:47:43.958Z,890.30
2018-07-04T04:48:22.944Z,890.29
2018-07-04T04:49:22.931Z,890.30
2018-07-04T04:50:22.922Z,890.29
2018-07-04T04:51:22.915Z,890.31
2018-07-04T04:52:22.905Z,890.30
2018-07-04T04:53:43.895Z,890.30
2018-07-04T04:54:22.883Z,890.33
2018-07-04T04:55:22.874Z,890.35
2018-07-04T04:56:22.874Z,890.31
2018-07-04T04:57:22.862Z,890.32
2018-07-04T04:58:22.850Z,890.31
2018-07-04T04:59:43.845Z,890.29
2018-07-04T05:00:22.830Z,890.28
2018-07-04T05:01:22.827Z,890.31
2018-07-04T05:02:22.829Z,890.29
2018-07-04T05:03:22.813Z,890.32
2018-07-04T05:04:22.790Z,890.28
2018-07-04T05:05:43.792Z,890.29
2018-07-04T05:06:22.776Z,890.28
2018-07-04T05:07:22.764Z,890.30
2018-07-04T05:08:22.758Z,890.26
2018-07-04T05:09:22.743Z,890.29
2018-07-04T05:10:22.740Z,890.27
2018-07-04T05:11:43.735Z,890.33
2018-07-04T05:12:22.717Z,890.27
2018-07-04T05:13:22.707Z,890.30
2018-07-04T05:14:22.699Z,890.32
2018-07-04T05:15:22.691Z,890.28
2018-07-04T05:16:22.683Z,890.31
2018-07-04T05:17:43.675Z,890.28
2018-07-04T05:18:22.661Z,890.27
2018-07-04T05:19:22.656Z,890.26
2018-07-04T05:20:22.644Z,890.28
2018-07-04T05:21:22.632Z,890.21
2018-07-04T05:22:22.625Z,890.21
2018-07-04T05:23:43.622Z,890.20
2018-07-04T05:24:22.605Z,890.21
2018-07-04T05:25:22.605Z,890.16
2018-07-04T05:26:22.589Z,890.19
2018-07-04T05:27:22.578Z,890.17
2018-07-04T05:28:22.639Z,890.21
2018-07-04T05:29:43.564Z,890.20
2018-07-04T05:30:22.549Z,890.20
2018-07-04T05:31:22.545Z,890.20
2018-07-04T05:32:22.534Z,890.19
2018-07-04T05:33:22.524Z,890.14
2018-07-04T05:34:22.510Z,890.18
2018-07-04T05:35:43.509Z,890.14
2018-07-04T05:36:22.502Z,890.12
2018-07-04T05:37:22.490Z,890.10
2018-07-04T05:38:22.473Z,890.13
2018-07-04T05:39:22.467Z,890.11
2018-07-04T05:40:22.459Z,890.15
2018-07-04T05:41:43.452Z,890.12
2018-07-04T05:42:22.434Z,890.12
2018-07-04T05:43:22.429Z,890.14
2018-07-04T05:44:22.425Z,890.10
2018-07-04T05:45:22.412Z,890.09
2018-07-04T05:46:22.402Z,890.06
2018-07-04T05:47:43.824Z,890.04
2018-07-04T05:48:22.382Z,890.09
2018-07-04T05:49:22.372Z,890.05
2018-07-04T05:50:22.362Z,890.03
2018-07-04T05:51:22.362Z,890.07
2018-07-04T05:52:22.347Z,890.05
2018-07-04T05:53:43.337Z,890.07
2018-07-04T05:54:22.331Z,890.11
2018-07-04T05:55:22.320Z,890.08
2018-07-04T05:56:22.312Z,890.08
2018-07-04T05:57:22.297Z,890.09
2018-07-04T05:58:22.287Z,890.07
2018-07-04T05:59:43.284Z,890.08
2018-07-04T06:00:22.271Z,890.10
2018-07-04T06:01:22.260Z,890.12
2018-07-04T06:02:22.251Z,890.09
2018-07-04T06:03:22.238Z,890.12
2018-07-04T06:04:22.233Z,890.12
2018-07-04T06:05:43.226Z,890.14
2018-07-04T06:06:22.214Z,890.14
2018-07-04T06:07:22.206Z,890.12
2018-07-04T06:08:22.195Z,890.19
2018-07-04T06:09:22.189Z,890.12
2018-07-04T06:10:22.179Z,890.15
2018-07-04T06:11:43.174Z,890.13
2018-07-04T06:12:22.161Z,890.13
2018-07-04T06:13:22.150Z,890.15
2018-07-04T06:14:22.142Z,890.16
2018-07-04T06:15:22.129Z,890.11
2018-07-04T06:16:22.181Z,890.07
2018-07-04T06:17:43.201Z,890.13
2018-07-04T06:18:22.109Z,890.11
2018-07-04T06:19:22.091Z,890.14
2018-07-04T06:20:22.084Z,890.13
2018-07-04T06:21:22.076Z,890.13
2018-07-04T06:22:22.067Z,890.10
2018-07-04T06:23:43.063Z,890.14
2018-07-04T06:24:22.054Z,890.09
2018-07-04T06:25:22.042Z,890.12
2018-07-04T06:26:22.031Z,890.11
2018-07-04T06:27:22.027Z,890.13
2018-07-04T06:28:22.017Z,890.15
2018-07-04T06:29:43.006Z,890.14
2018-07-04T06:30:21.995Z,890.10
2018-07-04T06:31:21.987Z,890.13
2018-07-04T06:32:21.985Z,890.11
2018-07-04T06:33:21.972Z,890.14
2018-07-04T06:34:21.964Z,890.13
2018-07-04T06:35:42.962Z,890.13
2018-07-04T06:36:21.943Z,890.13
2018-07-04T06:37:21.936Z,890.15
2018-07-04T06:38:21.924Z,890.11
2018-07-04T06:39:21.919Z,890.16
2018-07-04T06:40:21.904Z,890.13
2018-07-04T06:41:42.907Z,890.12
2018-07-04T06:42:21.890Z,890.13
2018-07-04T06:43:21.886Z,890.09
2018-07-04T06:44:21.876Z,890.11
2018-07-04T06:45:21.867Z,890.10
2018-07-04T06:46:21.857Z,890.08
2018-07-04T06:47:42.857Z,890.09
2018-07-04T06:48:21.842Z,890.10
2018-07-04T06:49:21.826Z,890.07
2018-07-04T06:50:21.824Z,890.11
2018-07-04T06:51:21.811Z,890.14
2018-07-04T06:52:21.806Z,890.16
2018-07-04T06:53:42.802Z,890.19
2018-07-04T06:54:21.792Z,890.15
2018-07-04T06:55:21.783Z,890.15
2018-07-04T06:56:21.776Z,890.14
2018-07-04T06:57:21.765Z,890.16
2018-07-04T06:58:21.754Z,890.16
2018-07-04T06:59:42.752Z,890.15
2018-07-04T07:00:21.741Z,890.17
2018-07-04T07:01:21.739Z,890.18
2018-07-04T07:02:21.723Z,890.19
2018-07-04T07:03:21.714Z,890.16
2018-07-04T07:04:21.704Z,890.19
2018-07-04T07:05:42.699Z,890.22
2018-07-04T07:06:21.685Z,890.21
2018-07-04T07:07:21.683Z,890.25
2018-07-04T07:08:21.685Z,890.29
2018-07-04T07:09:21.665Z,890.29
2018-07-04T07:10:21.656Z,890.28
2018-07-04T07:11:42.644Z,890.29
2018-07-04T07:12:21.636Z,890.31
2018-07-04T07:13:21.626Z,890.32
2018-07-04T07:14:21.626Z,890.26
2018-07-04T07:15:21.616Z,890.29
2018-07-04T07:16:21.604Z,890.30
2018-07-04T07:17:42.607Z,890.31
2018-07-04T07:18:21.594Z,890.29
2018-07-04T07:19:21.581Z,890.30
2018-07-04T07:20:21.568Z,890.27
2018-07-04T07:21:21.561Z,890.30
2018-07-04T07:22:21.555Z,890.32
2018-07-04T07:23:42.554Z,890.29
2018-07-04T07:24:21.548Z,890.29
2018-07-04T07:25:21.526Z,890.29
2018-07-04T07:26:21.525Z,890.20
2018-07-04T07:27:21.518Z,890.23
2018-07-04T07:28:21.508Z,890.21
2018-07-04T07:29:42.498Z,890.21
2018-07-04T07:30:21.488Z,890.20
2018-07-04T07:31:21.481Z,890.19
2018-07-04T07:32:21.470Z,890.17
2018-07-04T07:33:21.460Z,890.15
2018-07-04T07:34:21.485Z,890.16
2018-07-04T07:35:42.455Z,890.16
2018-07-04T07:36:21.439Z,890.14
2018-07-04T07:37:21.429Z,890.10
2018-07-04T07:38:21.423Z,890.08
2018-07-04T07:39:21.412Z,890.07
2018-07-04T07:40:21.400Z,890.07
2018-07-04T07:41:42.402Z,890.06
2018-07-04T07:42:21.393Z,890.06
2018-07-04T07:43:21.383Z,890.04
2018-07-04T07:44:21.366Z,890.05
2018-07-04T07:45:21.367Z,890.03
2018-07-04T07:46:21.361Z,890.04
2018-07-04T07:47:42.359Z,890.03
2018-07-04T07:48:21.339Z,889.99
2018-07-04T07:49:21.335Z,890.02
2018-07-04T07:50:21.324Z,890.01
2018-07-04T07:51:21.314Z,889.98
2018-07-04T07:52:21.306Z,890.00
2018-07-04T07:53:42.306Z,890.03
2018-07-04T07:54:21.316Z,890.03
2018-07-04T07:55:21.289Z,890.03
2018-07-04T07:56:21.277Z,890.01
2018-07-04T07:57:21.269Z,889.98
2018-07-04T07:58:21.261Z,889.97
2018-07-04T07:59:42.260Z,889.98
2018-07-04T08:00:21.248Z,889.98
2018-07-04T08:01:21.230Z,889.96
2018-07-04T08:02:21.229Z,889.97
2018-07-04T08:03:21.221Z,889.97
2018-07-04T08:04:21.211Z,889.96
2018-07-04T08:05:42.205Z,889.98
2018-07-04T08:06:21.190Z,889.96
2018-07-04T08:07:21.184Z,889.94
2018-07-04T08:08:21.181Z,889.92
2018-07-04T08:09:21.174Z,889.91
2018-07-04T08:10:21.155Z,889.92
2018-07-04T08:11:42.161Z,889.88
2018-07-04T08:12:21.148Z,889.89
2018-07-04T08:13:21.138Z,889.86
2018-07-04T08:14:21.128Z,889.88
2018-07-04T08:15:21.121Z,889.86
2018-07-04T08:16:21.112Z,889.88
2018-07-04T08:17:42.109Z,889.85
2018-07-04T08:18:21.094Z,889.87
2018-07-04T08:19:21.089Z,889.85
2018-07-04T08:20:21.078Z,889.82
2018-07-04T08:21:21.070Z,889.87
2018-07-04T08:22:21.065Z,889.84
2018-07-04T08:23:42.062Z,889.84
2018-07-04T08:24:21.048Z,889.85
2018-07-04T08:25:21.040Z,889.86
2018-07-04T08:26:21.046Z,889.84
2018-07-04T08:27:21.030Z,889.85
2018-07-04T08:28:21.022Z,889.83
2018-07-04T08:29:42.021Z,889.84
2018-07-04T08:30:21.029Z,889.83
2018-07-04T08:31:20.999Z,889.86
2018-07-04T08:32:20.992Z,889.85
2018-07-04T08:33:20.982Z,889.86
2018-07-04T08:34:20.977Z,889.83
2018-07-04T08:35:41.984Z,889.86
2018-07-04T08:36:20.962Z,889.83
2018-07-04T08:37:20.952Z,889.86
2018-07-04T08:38:20.948Z,889.84
2018-07-04T08:39:20.946Z,889.89
2018-07-04T08:40:20.934Z,889.89
2018-07-04T08:41:41.928Z,889.89
2018-07-04T08:42:20.920Z,889.86
2018-07-04T08:43:20.910Z,889.85
2018-07-04T08:44:20.901Z,889.84
2018-07-04T08:45:20.896Z,889.86
2018-07-04T08:46:20.897Z,889.84
2018-07-04T08:47:41.897Z,889.87
2018-07-04T08:48:20.879Z,889.90
2018-07-04T08:49:20.869Z,889.87
2018-07-04T08:50:20.859Z,889.89
2018-07-04T08:51:20.857Z,889.90
2018-07-04T08:52:20.853Z,889.90
2018-07-04T08:53:41.853Z,889.92
2018-07-04T08:54:20.842Z,889.90
2018-07-04T08:55:20.832Z,889.89
2018-07-04T08:56:20.826Z,889.92
2018-07-04T08:57:20.820Z,889.89
2018-07-04T08:58:20.843Z,889.88
2018-07-04T08:59:41.810Z,889.89
2018-07-04T09:00:20.804Z,889.90
2018-07-04T09:01:20.792Z,889.86
2018-07-04T09:02:20.790Z,889.86
2018-07-04T09:03:20.783Z,889.86
2018-07-04T09:04:20.773Z,889.84
2018-07-04T09:05:41.875Z,889.85
2018-07-04T09:06:20.762Z,889.84
2018-07-04T09:07:20.753Z,889.83
2018-07-04T09:08:20.750Z,889.87
2018-07-04T09:09:20.743Z,889.81
2018-07-04T09:10:20.737Z,889.77
2018-07-04T09:11:41.770Z,889.82
2018-07-04T09:12:20.724Z,889.76
2018-07-04T09:13:20.720Z,889.82
2018-07-04T09:14:20.715Z,889.80
2018-07-04T09:15:20.711Z,889.82
2018-07-04T09:16:20.704Z,889.79
2018-07-04T09:17:41.699Z,889.73
2018-07-04T09:18:20.689Z,889.74
2018-07-04T09:19:20.687Z,889.72
2018-07-04T09:20:20.680Z,889.69
2018-07-04T09:21:20.672Z,889.71
2018-07-04T09:22:20.665Z,889.71
2018-07-04T09:23:41.662Z,889.67
2018-07-04T09:24:20.652Z,889.70
2018-07-04T09:25:20.647Z,889.73
2018-07-04T09:26:20.640Z,889.73
2018-07-04T09:27:20.635Z,889.74
2018-07-04T09:28:20.629Z,889.72
2018-07-04T09:29:41.629Z,889.71
2018-07-04T09:30:20.621Z,889.70
2018-07-04T09:31:20.613Z,889.72
2018-07-04T09:32:20.605Z,889.66
2018-07-04T09:33:20.601Z,889.68
2018-07-04T09:34:20.595Z,889.66
2018-07-04T09:35:41.594Z,889.64
2018-07-04T09:36:20.590Z,889.67
2018-07-04T09:37:20.574Z,889.65
2018-07-04T09:38:20.600Z,889.66
2018-07-04T09:39:20.566Z,889.65
2018-07-04T09:40:20.560Z,889.63
2018-07-04T09:41:41.559Z,889.62
2018-07-04T09:42:20.554Z,889.61
2018-07-04T09:43:20.540Z,889.61
2018-07-04T09:44:20.545Z,889.61
2018-07-04T09:45:20.531Z,889.61
2018-07-04T09:46:20.526Z,889.62
2018-07-04T09:47:41.579Z,889.57
2018-07-04T09:48:20.522Z,889.58
2018-07-04T09:49:20.511Z,889.57
2018-07-04T09:50:20.508Z,889.57
2018-07-04T09:51:20.502Z,889.56
2018-07-04T09:52:20.495Z,889.55
2018-07-04T09:53:41.499Z,889.53
2018-07-04T09:54:20.483Z,889.51
2018-07-04T09:55:20.477Z,889.50
2018-07-04T09:56:20.469Z,889.52
2018-07-04T09:57:20.465Z,889.52
2018-07-04T09:58:20.467Z,889.47
2018-07-04T09:59:41.462Z,889.47
2018-07-04T10:00:20.448Z,889.48
2018-07-04T10:01:20.440Z,889.47
2018-07-04T10:02:20.440Z,889.46
2018-07-04T10:03:20.434Z,889.49
2018-07-04T10:04:20.428Z,889.43
2018-07-04T10:05:41.477Z,889.45
2018-07-04T10:06:20.418Z,889.40
2018-07-04T10:07:20.411Z,889.43
2018-07-04T10:08:20.404Z,889.43
2018-07-04T10:09:20.399Z,889.46
2018-07-04T10:10:20.395Z,889.44
2018-07-04T10:11:41.406Z,889.43
2018-07-04T10:12:20.385Z,889.48
2018-07-04T10:13:20.377Z,889.47
2018-07-04T10:14:20.375Z,889.47
2018-07-04T10:15:20.371Z,889.47
2018-07-04T10:16:20.360Z,889.47
2018-07-04T10:17:41.364Z,889.45
2018-07-04T10:18:20.385Z,889.47
2018-07-04T10:19:20.353Z,889.46
2018-07-04T10:20:20.339Z,889.54
2018-07-04T10:21:20.337Z,889.47
2018-07-04T10:22:20.327Z,889.51
2018-07-04T10:23:41.332Z,889.45
2018-07-04T10:24:20.321Z,889.48
2018-07-04T10:25:20.314Z,889.44
2018-07-04T10:26:20.312Z,889.44
2018-07-04T10:27:20.302Z,889.47
2018-07-04T10:28:20.302Z,889.54
2018-07-04T10:29:41.300Z,889.57
2018-07-04T10:30:20.286Z,889.59
2018-07-04T10:31:20.287Z,889.63
2018-07-04T10:32:20.279Z,889.67
2018-07-04T10:33:20.275Z,889.71
2018-07-04T10:34:20.317Z,889.70
2018-07-04T10:35:41.271Z,889.69
2018-07-04T10:36:20.255Z,889.73
2018-07-04T10:37:20.253Z,889.79
2018-07-04T10:38:20.243Z,889.82
2018-07-04T10:39:20.242Z,889.86
2018-07-04T10:40:20.239Z,889.94
2018-07-04T10:41:41.231Z,889.97
2018-07-04T10:42:20.221Z,889.97
2018-07-04T10:43:20.215Z,889.98
2018-07-04T10:44:20.207Z,889.99
2018-07-04T10:45:20.201Z,890.02
2018-07-04T10:46:20.195Z,890.03
2018-07-04T10:47:41.195Z,890.10
2018-07-04T10:48:20.188Z,890.12
2018-07-04T10:49:20.179Z,890.16
2018-07-04T10:50:20.171Z,890.16
2018-07-04T10:51:20.170Z,890.25
2018-07-04T10:52:20.161Z,890.21
2018-07-04T10:53:41.161Z,890.30
2018-07-04T10:54:20.149Z,890.29
2018-07-04T10:55:20.138Z,890.29
2018-07-04T10:56:20.133Z,890.39
2018-07-04T10:57:20.122Z,890.41
2018-07-04T10:58:20.118Z,890.42
2018-07-04T10:59:41.123Z,890.39
2018-07-04T11:00:20.107Z,890.50
2018-07-04T11:01:20.099Z,890.55
2018-07-04T11:02:20.091Z,890.58
2018-07-04T11:03:20.088Z,890.58
2018-07-04T11:04:20.079Z,890.58
2018-07-04T11:05:41.079Z,890.58
2018-07-04T11:06:20.071Z,890.57
2018-07-04T11:07:20.065Z,890.60
2018-07-04T11:08:20.054Z,890.65
2018-07-04T11:09:20.048Z,890.66
2018-07-04T11:10:20.041Z,890.69
2018-07-04T11:11:41.039Z,890.65
2018-07-04T11:12:20.025Z,890.63
2018-07-04T11:13:20.017Z,890.67
2018-07-04T11:14:20.010Z,890.65
2018-07-04T11:15:20.002Z,890.69
2018-07-04T11:16:19.995Z,890.78
2018-07-04T11:17:40.994Z,890.87
2018-07-04T11:18:19.982Z,890.87
2018-07-04T11:19:19.975Z,890.90
2018-07-04T11:20:19.971Z,890.92
2018-07-04T11:21:19.964Z,890.87
2018-07-04T11:22:19.979Z,890.86
2018-07-04T11:23:40.950Z,890.89
2018-07-04T11:24:19.944Z,890.91
2018-07-04T11:25:19.932Z,890.89
2018-07-04T11:26:19.928Z,890.88
2018-07-04T11:27:19.919Z,890.87
2018-07-04T11:28:19.918Z,890.86
2018-07-04T11:29:40.910Z,890.80
2018-07-04T11:30:19.900Z,890.79
2018-07-04T11:31:19.897Z,890.79
2018-07-04T11:32:19.887Z,890.80
2018-07-04T11:33:19.879Z,890.85
2018-07-04T11:34:19.867Z,890.78
2018-07-04T11:35:40.884Z,890.83
2018-07-04T11:36:19.852Z,890.80
2018-07-04T11:37:19.848Z,890.80
2018-07-04T11:38:19.856Z,890.72
2018-07-04T11:39:19.836Z,890.74
2018-07-04T11:40:19.836Z,890.72
2018-07-04T11:41:40.824Z,890.71
2018-07-04T11:42:19.813Z,890.63
2018-07-04T11:43:19.811Z,890.64
2018-07-04T11:44:19.797Z,890.61
2018-07-04T11:45:19.794Z,890.61
2018-07-04T11:46:19.787Z,890.57
2018-07-04T11:47:40.785Z,890.54
2018-07-04T11:48:19.773Z,890.55
2018-07-04T11:49:19.767Z,890.52
2018-07-04T11:50:19.759Z,890.48
2018-07-04T11:51:19.766Z,890.54
2018-07-04T11:52:19.748Z,890.49
2018-07-04T11:53:40.745Z,890.47
2018-07-04T11:54:19.738Z,890.42
2018-07-04T11:55:19.730Z,890.43
2018-07-04T11:56:19.723Z,890.41
2018-07-04T11:57:19.713Z,890.40
2018-07-04T11:58:19.723Z,890.43
2018-07-04T11:59:40.708Z,890.43
2018-07-04T12:00:19.696Z,890.50
2018-07-04T12:01:19.688Z,890.46
2018-07-04T12:02:19.684Z,890.49
2018-07-04T12:03:19.676Z,890.46
2018-07-04T12:04:19.670Z,890.46
2018-07-04T12:05:40.669Z,890.48
2018-07-04T12:06:19.658Z,890.47
2018-07-04T12:07:19.654Z,890.47
2018-07-04T12:08:19.651Z,890.48
2018-07-04T12:09:19.643Z,890.54
2018-07-04T12:10:19.639Z,890.53
2018-07-04T12:11:40.642Z,890.53
2018-07-04T12:12:19.628Z,890.54
2018-07-04T12:13:19.615Z,890.53
2018-07-04T12:14:19.609Z,890.50
2018-07-04T12:15:19.608Z,890.57
2018-07-04T12:16:19.599Z,890.54
2018-07-04T12:17:40.598Z,890.50
2018-07-04T12:18:19.586Z,890.48
2018-07-04T12:19:19.578Z,890.54
2018-07-04T12:20:19.578Z,890.50
2018-07-04T12:21:19.571Z,890.54
2018-07-04T12:22:19.562Z,890.54
2018-07-04T12:23:40.567Z,890.50
2018-07-04T12:24:19.561Z,890.50
2018-07-04T12:25:19.549Z,890.49
2018-07-04T12:26:19.539Z,890.46
2018-07-04T12:27:19.536Z,890.43
2018-07-04T12:28:19.538Z,890.43